createdAt,value
2019-03-11T00:00:48.978Z,0.80
2019-03-11T00:03:18.926Z,1.00
2019-03-11T00:05:49.302Z,0.70
2019-03-11T00:08:20.312Z,0.83
2019-03-11T00:10:50.506Z,0.90
2019-03-11T00:13:20.383Z,0.70
2019-03-11T00:15:50.195Z,0.87
2019-03-11T00:18:20.047Z,0.90
2019-03-11T00:20:49.848Z,0.60
2019-03-11T00:23:19.664Z,0.90
2019-03-11T00:25:49.480Z,0.77
2019-03-11T00:28:19.274Z,0.80
2019-03-11T00:30:49.546Z,1.00
2019-03-11T00:33:20.044Z,0.73
2019-03-11T00:35:50.597Z,1.00
2019-03-11T00:38:20.386Z,0.90
2019-03-11T00:40:50.233Z,1.00
2019-03-11T00:43:20.051Z,1.10
2019-03-11T00:45:50.069Z,1.13
2019-03-11T00:48:19.865Z,1.20
2019-03-11T00:50:50.403Z,1.10
2019-03-11T00:53:21.304Z,1.33
2019-03-11T00:55:51.212Z,1.13
2019-03-11T00:58:21.283Z,1.13
2019-03-11T01:00:51.331Z,1.00
2019-03-11T01:03:21.503Z,1.00
2019-03-11T01:05:52.005Z,0.97
2019-03-11T01:08:22.026Z,1.03
2019-03-11T01:10:51.903Z,1.10
2019-03-11T01:13:21.769Z,1.10
2019-03-11T01:15:51.678Z,1.20
2019-03-11T01:18:21.523Z,0.90
2019-03-11T01:20:51.327Z,1.20
2019-03-11T01:23:21.562Z,1.07
2019-03-11T01:25:51.358Z,0.93
2019-03-11T01:28:21.165Z,1.13
2019-03-11T01:30:50.998Z,1.37
2019-03-11T01:33:21.230Z,1.20
2019-03-11T01:35:51.619Z,1.30
2019-03-11T01:38:21.418Z,1.00
2019-03-11T01:40:51.211Z,1.20
2019-03-11T01:43:21.018Z,1.00
2019-03-11T01:45:51.001Z,1.00
2019-03-11T01:48:22.016Z,1.13
2019-03-11T01:50:52.483Z,1.23
2019-03-11T01:53:22.906Z,1.07
2019-03-11T01:55:52.707Z,1.57
2019-03-11T01:58:22.503Z,1.13
2019-03-11T02:00:52.672Z,1.17
2019-03-11T02:03:22.645Z,1.10
2019-03-11T02:05:52.511Z,1.03
2019-03-11T02:08:22.336Z,1.30
2019-03-11T02:10:52.215Z,1.00
2019-03-11T02:13:22.112Z,1.07
2019-03-11T02:15:51.979Z,1.20
2019-03-11T02:18:21.895Z,1.00
2019-03-11T02:20:51.698Z,1.30
2019-03-11T02:23:21.528Z,1.10
2019-03-11T02:25:51.414Z,1.20
2019-03-11T02:28:21.198Z,1.17
2019-03-11T02:30:51.399Z,1.20
2019-03-11T02:33:22.526Z,1.10
2019-03-11T02:35:52.316Z,1.13
2019-03-11T02:38:22.096Z,1.23
2019-03-11T02:40:51.971Z,1.30
2019-03-11T02:43:21.826Z,0.97
2019-03-11T02:45:51.797Z,1.10
2019-03-11T02:48:22.810Z,1.20
2019-03-11T02:50:53.523Z,1.03
2019-03-11T02:53:23.779Z,1.50
2019-03-11T02:55:53.559Z,1.10
2019-03-11T02:58:23.459Z,1.33
2019-03-11T03:01:04.051Z,1.60
2019-03-11T03:03:38.810Z,1.40
2019-03-11T03:06:12.277Z,1.57
2019-03-11T03:08:42.050Z,1.30
2019-03-11T03:11:11.835Z,1.33
2019-03-11T03:13:41.682Z,1.20
2019-03-11T03:16:11.523Z,1.50
2019-03-11T03:18:41.347Z,1.07
2019-03-11T03:21:11.189Z,1.43
2019-03-11T03:23:41.027Z,1.40
2019-03-11T03:26:10.814Z,1.33
2019-03-11T03:28:40.939Z,1.27
2019-03-11T03:31:10.784Z,1.60
2019-03-11T03:33:41.680Z,1.33
2019-03-11T03:36:11.488Z,1.43
2019-03-11T03:38:42.500Z,1.53
2019-03-11T03:41:12.297Z,1.67
2019-03-11T03:43:42.136Z,1.33
2019-03-11T03:46:18.849Z,1.23
2019-03-11T03:48:43.823Z,1.50
2019-03-11T03:51:13.934Z,1.57
2019-03-11T03:53:43.788Z,1.20
2019-03-11T03:56:13.555Z,1.77
2019-03-11T03:58:43.742Z,1.47
2019-03-11T04:01:13.541Z,1.00
2019-03-11T04:03:43.325Z,1.30
2019-03-11T04:06:13.188Z,1.27
2019-03-11T04:08:42.997Z,1.30
2019-03-11T04:11:12.834Z,1.13
2019-03-11T04:13:42.672Z,0.90
2019-03-11T04:16:12.641Z,1.40
2019-03-11T04:18:50.655Z,1.20
2019-03-11T04:21:20.923Z,1.17
2019-03-11T04:23:51.919Z,1.20
2019-03-11T04:26:28.063Z,1.33
2019-03-11T04:28:58.212Z,1.20
2019-03-11T04:31:28.071Z,1.17
2019-03-11T04:33:59.341Z,1.10
2019-03-11T04:36:29.196Z,1.23
2019-03-11T04:38:59.146Z,1.20
2019-03-11T04:41:28.935Z,1.23
2019-03-11T04:43:58.694Z,1.10
2019-03-11T04:46:28.466Z,1.20
2019-03-11T04:48:59.043Z,1.00
2019-03-11T04:51:28.844Z,1.00
2019-03-11T04:53:58.607Z,1.23
2019-03-11T04:56:28.407Z,1.00
2019-03-11T04:59:09.737Z,1.00
2019-03-11T05:01:39.614Z,0.90
2019-03-11T05:04:09.431Z,1.20
2019-03-11T05:06:39.229Z,1.00
2019-03-11T05:09:09.207Z,0.90
2019-03-11T05:11:39.014Z,0.70
2019-03-11T05:14:09.673Z,1.00
2019-03-11T05:16:39.522Z,1.17
2019-03-11T05:19:09.348Z,1.00
2019-03-11T05:21:39.172Z,0.80
2019-03-11T05:24:09.242Z,1.00
2019-03-11T05:26:39.032Z,1.03
2019-03-11T05:29:09.140Z,1.00
2019-03-11T05:31:39.373Z,0.93
2019-03-11T05:34:10.191Z,1.00
2019-03-11T05:36:39.989Z,0.97
2019-03-11T05:39:09.755Z,0.73
2019-03-11T05:41:39.662Z,0.70
2019-03-11T05:44:09.438Z,0.87
2019-03-11T05:46:39.229Z,0.90
2019-03-11T05:49:09.267Z,0.90
2019-03-11T05:51:39.090Z,0.90
2019-03-11T05:54:08.867Z,0.63
2019-03-11T05:56:38.681Z,0.80
2019-03-11T05:59:08.479Z,0.80
2019-03-11T06:01:38.326Z,0.70
2019-03-11T06:04:10.395Z,0.80
2019-03-11T06:06:40.442Z,0.83
2019-03-11T06:09:10.222Z,0.70
2019-03-11T06:11:40.011Z,0.57
2019-03-11T06:14:09.803Z,0.67
2019-03-11T06:16:39.695Z,0.67
2019-03-11T06:19:09.493Z,0.60
2019-03-11T06:21:48.851Z,0.80
2019-03-11T06:24:19.336Z,0.70
2019-03-11T06:27:01.681Z,0.70
2019-03-11T06:29:32.748Z,0.90
2019-03-11T06:32:03.149Z,0.80
2019-03-11T06:34:33.996Z,0.80
2019-03-11T06:37:03.915Z,0.70
2019-03-11T06:39:33.741Z,0.80
2019-03-11T06:42:03.663Z,0.70
2019-03-11T06:44:33.452Z,0.60
2019-03-11T06:47:03.237Z,0.90
2019-03-11T06:49:33.058Z,0.63
2019-03-11T06:52:15.207Z,0.70
2019-03-11T06:54:45.036Z,0.70
2019-03-11T06:57:15.059Z,0.80
2019-03-11T06:59:45.995Z,0.90
2019-03-11T07:02:15.899Z,0.60
2019-03-11T07:04:45.727Z,0.60
2019-03-11T07:07:15.536Z,0.67
2019-03-11T07:09:45.444Z,0.70
2019-03-11T07:12:15.223Z,0.70
2019-03-11T07:14:45.082Z,0.80
2019-03-11T07:17:14.874Z,0.67
2019-03-11T07:19:45.034Z,1.00
2019-03-11T07:22:15.698Z,1.13
2019-03-11T07:24:45.675Z,1.20
2019-03-11T07:27:15.548Z,1.40
2019-03-11T07:29:45.349Z,1.40
2019-03-11T07:32:17.555Z,1.53
2019-03-11T07:34:47.454Z,1.20
2019-03-11T07:37:17.305Z,1.27
2019-03-11T07:39:47.939Z,1.17
2019-03-11T07:42:18.624Z,1.20
2019-03-11T07:44:48.446Z,1.40
2019-03-11T07:47:18.270Z,0.90
2019-03-11T07:49:48.061Z,1.20
2019-03-11T07:52:18.694Z,1.43
2019-03-11T07:54:49.182Z,1.50
2019-03-11T07:57:19.994Z,1.50
2019-03-11T07:59:50.051Z,1.40
2019-03-11T08:02:19.924Z,1.47
2019-03-11T08:04:49.755Z,1.30
2019-03-11T08:07:19.539Z,1.20
2019-03-11T08:09:49.771Z,1.17
2019-03-11T08:12:19.980Z,1.17
2019-03-11T08:14:50.046Z,1.27
2019-03-11T08:17:19.898Z,1.67
2019-03-11T08:19:49.796Z,1.40
2019-03-11T08:22:19.640Z,1.40
2019-03-11T08:24:49.509Z,1.30
2019-03-11T08:27:19.358Z,1.27
2019-03-11T08:29:49.159Z,1.57
2019-03-11T08:32:20.329Z,1.40
2019-03-11T08:34:50.135Z,1.60
2019-03-11T08:37:19.998Z,1.40
2019-03-11T08:39:51.121Z,1.20
2019-03-11T08:42:21.953Z,1.40
2019-03-11T08:44:52.976Z,1.10
2019-03-11T08:47:24.655Z,1.63
2019-03-11T08:49:55.658Z,1.30
2019-03-11T08:52:25.508Z,1.60
2019-03-11T08:54:55.295Z,1.17
2019-03-11T08:57:25.210Z,1.73
2019-03-11T08:59:55.071Z,1.27
2019-03-11T09:02:24.899Z,1.33
2019-03-11T09:04:54.718Z,1.13
2019-03-11T09:07:25.144Z,1.60
2019-03-11T09:09:56.882Z,1.40
2019-03-11T09:12:26.855Z,1.73
2019-03-11T09:14:56.731Z,1.20
2019-03-11T09:17:26.930Z,1.60
2019-03-11T09:19:56.707Z,1.30
2019-03-11T09:22:26.592Z,1.20
2019-03-11T09:24:56.496Z,1.93
2019-03-11T09:27:26.287Z,1.37
2019-03-11T09:30:08.738Z,1.40
2019-03-11T09:32:41.028Z,1.30
2019-03-11T09:35:11.015Z,1.67
2019-03-11T09:37:40.835Z,1.30
2019-03-11T09:40:30.550Z,1.30
2019-03-11T09:43:00.350Z,1.27
2019-03-11T09:45:30.238Z,1.33
2019-03-11T09:48:00.052Z,1.00
2019-03-11T09:50:29.941Z,1.57
2019-03-11T09:52:59.732Z,1.17
2019-03-11T09:55:29.790Z,1.30
2019-03-11T09:57:59.633Z,1.27
2019-03-11T10:00:29.758Z,1.67
2019-03-11T10:02:59.747Z,1.77
2019-03-11T10:05:32.227Z,1.30
2019-03-11T10:08:02.163Z,1.47
2019-03-11T10:10:32.164Z,1.63
2019-03-11T10:13:02.094Z,1.13
2019-03-11T10:15:32.179Z,1.30
2019-03-11T10:18:02.047Z,1.60
2019-03-11T10:20:32.071Z,1.37
2019-03-11T10:23:01.880Z,1.60
2019-03-11T10:25:31.727Z,1.37
2019-03-11T10:28:02.270Z,1.80
2019-03-11T10:30:32.095Z,1.43
2019-03-11T10:33:03.938Z,1.47
2019-03-11T10:35:35.487Z,1.57
2019-03-11T10:38:05.319Z,1.30
2019-03-11T10:40:35.103Z,1.30
2019-03-11T10:43:05.068Z,1.17
2019-03-11T10:45:35.032Z,1.20
2019-03-11T10:48:06.271Z,1.43
2019-03-11T10:50:36.139Z,1.30
2019-03-11T10:53:06.026Z,1.30
2019-03-11T10:55:36.277Z,1.27
2019-03-11T10:58:06.238Z,1.20
2019-03-11T11:00:36.370Z,1.47
2019-03-11T11:03:06.326Z,1.27
2019-03-11T11:05:36.262Z,1.00
2019-03-11T11:08:06.213Z,1.13
2019-03-11T11:10:36.064Z,1.50
2019-03-11T11:13:06.130Z,1.67
2019-03-11T11:15:37.408Z,1.30
2019-03-11T11:18:07.394Z,1.53
2019-03-11T11:20:37.280Z,1.20
2019-03-11T11:23:07.167Z,1.30
2019-03-11T11:25:37.050Z,1.50
2019-03-11T11:28:07.030Z,1.33
2019-03-11T11:30:37.142Z,1.27
2019-03-11T11:33:07.339Z,1.40
2019-03-11T11:35:38.746Z,1.37
2019-03-11T11:38:08.763Z,1.37
2019-03-11T11:40:39.617Z,1.47
2019-03-11T11:43:09.434Z,1.27
2019-03-11T11:45:39.247Z,1.17
2019-03-11T11:48:09.563Z,1.40
2019-03-11T11:50:40.654Z,1.20
2019-03-11T11:53:10.498Z,1.37
2019-03-11T11:55:40.425Z,0.90
2019-03-11T11:58:10.327Z,1.00
2019-03-11T12:00:42.392Z,1.20
2019-03-11T12:03:12.306Z,1.30
2019-03-11T12:05:42.315Z,1.23
2019-03-11T12:08:12.892Z,1.30
2019-03-11T12:10:43.036Z,1.50
2019-03-11T12:13:12.993Z,1.40
2019-03-11T12:15:43.436Z,1.53
2019-03-11T12:18:13.249Z,1.10
2019-03-11T12:20:43.175Z,1.70
2019-03-11T12:23:13.275Z,1.57
2019-03-11T12:25:44.740Z,1.30
2019-03-11T12:28:15.746Z,1.40
2019-03-11T12:30:45.730Z,1.20
2019-03-11T12:33:16.470Z,1.30
2019-03-11T12:35:47.449Z,1.40
2019-03-11T12:38:17.861Z,1.30
2019-03-11T12:40:48.795Z,1.30
2019-03-11T12:43:18.734Z,1.60
2019-03-11T12:45:48.621Z,1.43
2019-03-11T12:48:18.503Z,0.90
2019-03-11T12:50:48.346Z,1.37
2019-03-11T12:53:18.271Z,1.40
2019-03-11T12:55:48.070Z,1.73
2019-03-11T12:58:17.980Z,1.27
2019-03-11T13:00:47.898Z,1.57
2019-03-11T13:03:17.794Z,1.80
2019-03-11T13:05:47.701Z,1.10
2019-03-11T13:08:17.654Z,1.20
2019-03-11T13:10:47.466Z,1.10
2019-03-11T13:13:19.123Z,1.10
2019-03-11T13:15:49.311Z,1.17
2019-03-11T13:18:33.152Z,1.37
2019-03-11T13:21:13.011Z,1.30
2019-03-11T13:23:43.554Z,1.20
2019-03-11T13:26:13.600Z,1.47
2019-03-11T13:28:44.934Z,1.20
2019-03-11T13:31:15.023Z,1.10
2019-03-11T13:33:46.707Z,1.77
2019-03-11T13:36:16.989Z,1.10
2019-03-11T13:38:47.780Z,1.43
2019-03-11T13:41:17.894Z,1.40
2019-03-11T13:43:48.752Z,1.20
2019-03-11T13:46:18.740Z,1.10
2019-03-11T13:48:48.687Z,1.30
2019-03-11T13:51:18.756Z,1.37
2019-03-11T13:53:48.623Z,1.30
2019-03-11T13:56:18.850Z,1.40
2019-03-11T13:58:49.296Z,1.00
2019-03-11T14:01:21.304Z,0.90
2019-03-11T14:03:50.626Z,1.47
2019-03-11T14:06:20.810Z,1.17
2019-03-11T14:08:50.639Z,2.20
2019-03-11T14:11:21.159Z,1.43
2019-03-11T14:13:52.436Z,1.20
2019-03-11T14:16:22.490Z,1.40
2019-03-11T14:18:52.308Z,1.20
2019-03-11T14:21:26.113Z,1.20
2019-03-11T14:23:55.240Z,1.43
2019-03-11T14:26:25.030Z,1.57
2019-03-11T14:28:56.050Z,1.50
2019-03-11T14:31:26.467Z,1.40
2019-03-11T14:33:56.906Z,1.10
2019-03-11T14:36:27.069Z,1.00
2019-03-11T14:38:58.370Z,1.20
2019-03-11T14:41:29.204Z,1.50
2019-03-11T14:43:58.982Z,1.13
2019-03-11T14:46:28.906Z,1.20
2019-03-11T14:48:58.991Z,1.30
2019-03-11T14:51:28.981Z,1.60
2019-03-11T14:53:58.836Z,1.20
2019-03-11T14:56:29.092Z,1.30
2019-03-11T14:58:59.174Z,1.50
2019-03-11T15:01:31.288Z,1.43
2019-03-11T15:04:02.140Z,1.30
2019-03-11T15:06:32.257Z,1.20
2019-03-11T15:09:02.046Z,1.23
2019-03-11T15:11:31.886Z,1.40
2019-03-11T15:14:01.696Z,1.60
2019-03-11T15:16:31.586Z,1.10
2019-03-11T15:19:01.445Z,1.80
2019-03-11T15:21:31.822Z,1.17
2019-03-11T15:24:02.162Z,1.30
2019-03-11T15:26:52.912Z,1.07
2019-03-11T15:29:23.823Z,1.30
2019-03-11T15:31:57.543Z,1.20
2019-03-11T15:34:28.110Z,1.17
2019-03-11T15:36:59.277Z,2.03
2019-03-11T15:39:29.816Z,1.27
2019-03-11T15:41:59.731Z,1.40
2019-03-11T15:44:29.727Z,1.20
2019-03-11T15:46:59.684Z,1.47
2019-03-11T15:49:31.403Z,1.50
2019-03-11T15:52:02.143Z,1.97
2019-03-11T15:54:31.984Z,1.70
2019-03-11T15:57:01.766Z,1.50
2019-03-11T15:59:31.551Z,1.53
2019-03-11T16:02:02.274Z,1.73
2019-03-11T16:04:32.322Z,1.10
2019-03-11T16:07:03.554Z,1.60
2019-03-11T16:09:33.567Z,1.60
2019-03-11T16:12:03.534Z,1.80
2019-03-11T16:14:33.597Z,1.37
2019-03-11T16:17:03.664Z,1.57
2019-03-11T16:19:33.966Z,1.50
2019-03-11T16:22:03.889Z,1.07
2019-03-11T16:24:33.878Z,1.10
2019-03-11T16:27:05.386Z,1.17
2019-03-11T16:29:36.513Z,1.27
2019-03-11T16:32:11.851Z,1.20
2019-03-11T16:34:40.867Z,1.33
2019-03-11T16:37:10.711Z,1.00
2019-03-11T16:39:40.590Z,1.37
2019-03-11T16:42:11.537Z,1.00
2019-03-11T16:44:41.391Z,1.13
2019-03-11T16:47:11.169Z,1.43
2019-03-11T16:49:40.984Z,1.10
2019-03-11T16:52:10.851Z,1.33
2019-03-11T16:54:40.635Z,1.20
2019-03-11T16:57:10.459Z,1.20
2019-03-11T16:59:40.390Z,1.33
2019-03-11T17:02:11.217Z,1.40
2019-03-11T17:04:41.048Z,1.07
2019-03-11T17:07:10.913Z,1.10
2019-03-11T17:09:41.037Z,0.93
2019-03-11T17:12:10.844Z,1.27
2019-03-11T17:14:40.660Z,0.87
2019-03-11T17:17:10.463Z,1.23
2019-03-11T17:19:40.240Z,0.83
2019-03-11T17:22:10.133Z,1.03
2019-03-11T17:24:40.353Z,1.20
2019-03-11T17:27:10.365Z,1.10
2019-03-11T17:29:41.715Z,0.80
2019-03-11T17:32:12.802Z,0.97
2019-03-11T17:34:42.616Z,1.03
2019-03-11T17:37:12.406Z,1.13
2019-03-11T17:39:42.330Z,1.00
2019-03-11T17:42:12.110Z,1.13
2019-03-11T17:44:41.962Z,1.10
2019-03-11T17:47:11.841Z,1.00
2019-03-11T17:49:41.862Z,0.77
2019-03-11T17:52:12.596Z,1.00
2019-03-11T17:54:43.840Z,1.20
2019-03-11T17:57:15.159Z,1.10
2019-03-11T17:59:46.053Z,1.10
2019-03-11T18:02:17.350Z,1.20
2019-03-11T18:04:47.217Z,1.03
2019-03-11T18:07:17.000Z,0.90
2019-03-11T18:09:46.975Z,1.20
2019-03-11T18:12:16.754Z,0.90
2019-03-11T18:14:46.544Z,1.00
2019-03-11T18:17:16.436Z,0.97
2019-03-11T18:19:46.546Z,0.90
2019-03-11T18:22:17.500Z,1.10
2019-03-11T18:24:47.358Z,0.80
2019-03-11T18:27:17.180Z,0.93
2019-03-11T18:29:47.454Z,0.97
2019-03-11T18:32:19.225Z,0.93
2019-03-11T18:35:00.847Z,1.10
2019-03-11T18:37:30.753Z,1.13
2019-03-11T18:40:00.687Z,1.00
2019-03-11T18:42:30.581Z,1.00
2019-03-11T18:45:00.645Z,1.30
2019-03-11T18:47:30.478Z,0.87
2019-03-11T18:50:00.423Z,1.03
2019-03-11T18:52:31.037Z,1.00
2019-03-11T18:55:00.870Z,0.93
2019-03-11T18:57:30.763Z,1.00
2019-03-11T19:00:13.710Z,1.33
2019-03-11T19:02:44.818Z,1.07
2019-03-11T19:05:15.341Z,0.97
2019-03-11T19:07:45.620Z,0.87
2019-03-11T19:10:19.069Z,0.80
2019-03-11T19:12:49.062Z,0.90
2019-03-11T19:15:19.256Z,0.87
2019-03-11T19:17:49.168Z,0.83
2019-03-11T19:20:19.455Z,0.87
2019-03-11T19:22:49.782Z,0.90
2019-03-11T19:25:19.781Z,1.00
2019-03-11T19:27:49.773Z,0.97
2019-03-11T19:30:20.468Z,1.07
2019-03-11T19:32:51.091Z,0.80
2019-03-11T19:35:23.525Z,0.90
2019-03-11T19:37:53.784Z,0.80
2019-03-11T19:40:23.977Z,1.00
2019-03-11T19:42:54.142Z,0.70
2019-03-11T19:45:24.026Z,1.20
2019-03-11T19:47:53.892Z,0.80
2019-03-11T19:50:24.341Z,0.87
2019-03-11T19:52:59.001Z,0.77
2019-03-11T19:55:26.326Z,1.17
2019-03-11T19:57:57.243Z,0.87
2019-03-11T20:00:31.681Z,0.80
2019-03-11T20:03:02.035Z,0.83
2019-03-11T20:05:32.231Z,0.70
2019-03-11T20:08:02.164Z,0.97
2019-03-11T20:10:32.189Z,0.73
2019-03-11T20:13:02.101Z,0.97
2019-03-11T20:15:32.194Z,0.90
2019-03-11T20:18:02.052Z,0.90
2019-03-11T20:20:32.667Z,1.10
2019-03-11T20:23:02.606Z,0.90
2019-03-11T20:25:32.587Z,0.90
2019-03-11T20:28:02.497Z,0.87
2019-03-11T20:30:33.055Z,0.93
2019-03-11T20:33:05.299Z,1.00
2019-03-11T20:35:35.109Z,0.90
2019-03-11T20:38:05.310Z,0.90
2019-03-11T20:40:35.273Z,1.00
2019-03-11T20:43:06.408Z,1.10
2019-03-11T20:45:36.954Z,0.93
2019-03-11T20:48:06.970Z,0.80
2019-03-11T20:50:42.030Z,0.90
2019-03-11T20:53:08.329Z,1.13
2019-03-11T20:55:38.303Z,0.90
2019-03-11T20:58:08.222Z,0.87
2019-03-11T21:00:38.055Z,0.93
2019-03-11T21:03:09.121Z,0.97
2019-03-11T21:05:39.035Z,0.90
2019-03-11T21:08:08.911Z,0.90
2019-03-11T21:10:38.890Z,0.90
2019-03-11T21:13:08.856Z,0.67
2019-03-11T21:15:38.742Z,0.70
2019-03-11T21:18:08.669Z,0.73
2019-03-11T21:20:38.572Z,1.00
2019-03-11T21:23:08.729Z,1.00
2019-03-11T21:25:38.764Z,0.87
2019-03-11T21:28:08.667Z,1.00
2019-03-11T21:30:38.543Z,0.83
2019-03-11T21:33:09.647Z,0.97
2019-03-11T21:35:40.266Z,1.03
2019-03-11T21:38:10.231Z,0.83
2019-03-11T21:40:39.988Z,0.87
2019-03-11T21:43:09.882Z,0.87
2019-03-11T21:45:39.703Z,0.90
2019-03-11T21:48:09.688Z,1.07
2019-03-11T21:50:39.634Z,0.87
2019-03-11T21:53:09.550Z,1.00
2019-03-11T21:55:39.472Z,1.00
2019-03-11T21:58:13.483Z,0.80
2019-03-11T22:00:40.960Z,1.10
2019-03-11T22:03:11.834Z,1.00
2019-03-11T22:05:41.738Z,0.90
2019-03-11T22:08:11.565Z,1.00
2019-03-11T22:10:41.374Z,0.83
2019-03-11T22:13:11.166Z,0.90
2019-03-11T22:15:40.944Z,1.17
2019-03-11T22:18:11.116Z,1.00
2019-03-11T22:20:40.886Z,0.90
2019-03-11T22:23:12.788Z,0.77
2019-03-11T22:25:42.584Z,0.90
2019-03-11T22:28:12.351Z,0.80
2019-03-11T22:30:42.169Z,0.90
2019-03-11T22:33:12.966Z,0.90
2019-03-11T22:35:43.803Z,1.00
2019-03-11T22:38:13.678Z,1.10
2019-03-11T22:40:43.448Z,0.70
2019-03-11T22:43:13.258Z,1.10
2019-03-11T22:45:43.235Z,1.00
2019-03-11T22:48:13.027Z,1.00
2019-03-11T22:50:42.830Z,0.93
2019-03-11T22:53:12.601Z,1.00
2019-03-11T22:55:42.397Z,0.93
2019-03-11T22:58:12.410Z,0.93
2019-03-11T23:00:55.459Z,1.00
2019-03-11T23:03:26.874Z,0.90
2019-03-11T23:05:58.453Z,0.83
2019-03-11T23:08:28.467Z,1.10
2019-03-11T23:10:58.356Z,1.10
2019-03-11T23:13:28.363Z,1.20
2019-03-11T23:15:58.185Z,1.10
2019-03-11T23:18:27.977Z,1.10
2019-03-11T23:20:58.556Z,0.90
2019-03-11T23:23:29.082Z,1.27
2019-03-11T23:25:59.022Z,0.97
2019-03-11T23:28:28.827Z,0.93
2019-03-11T23:30:58.611Z,0.73
2019-03-11T23:33:29.652Z,1.00
2019-03-11T23:35:59.685Z,1.07
2019-03-11T23:38:29.546Z,1.10
2019-03-11T23:40:59.386Z,1.03
2019-03-11T23:43:29.153Z,1.00
2019-03-11T23:45:59.087Z,1.07
2019-03-11T23:48:28.878Z,1.00
2019-03-11T23:50:58.715Z,0.97
2019-03-11T23:53:28.482Z,1.23
2019-03-11T23:55:58.417Z,0.93
2019-03-11T23:58:28.193Z,0.93
